Bozkov, Czech Republic

9:20 PM CET on December 06, 2016 (GMT +0100)
Laduv Kraj | | Change Station

Elev 1378 ft 49.93 °N, 14.70 °E | Updated 5 seconds ago

Overcast
Overcast
28.7 °F
Feels Like 29 °F
N
0.0
Wind Variable Wind from SW
Gusts 2.0 mph

Today
High -- | Low -- °F
--% Chance of Precip.
Yesterday
High -- | Low -- °F
Precip. -- in
Pressure 30.54 in
Visibility 6.2 miles
Clouds Overcast 2000 ft
Windchill 29 °F
Dew Point 27 °F
Humidity 94%
Rainfall 0.00 in
Snow Depth Not available.
7:44 AM 4:00 PM
Waxing Crescent, 44% visible
METAR LKKB 062000Z 20007KT 9999 OVC020 M01/M03 Q1034 NOSIG
Pressure 30.54 in
Visibility 6.2 miles
Clouds Overcast 2000 ft
Windchill 29 °F
Dew Point 27 °F
Humidity 94%
Rainfall 0.00 in
Snow Depth Not available.
7:44 AM 4:00 PM
Waxing Crescent, 44% visible
METAR LKKB 062000Z 20007KT 9999 OVC020 M01/M03 Q1034 NOSIG

10-Day Weather Forecast

×

Almanac

Astronomy

Dec. 06, 2016 Rise Set
Actual Time
Civil Twilight
Nautical Twilight
Astronomical Twilight
Moon
Length of Visible Light
Length of Day
Tomorrow will be .
, % of the Moon is Illuminated

Today's Extremes

Country Highs Country Lows

Community

WunderPhotos

Upload Photos

1,956,022 photos uploaded!

WunderBlog® & News

Nearby

Air Quality

  Air Quality AQ Index Pollutant
Not available.

Snow Depth

Station Depth Elevation

Earthquake Activity

City Distance Mag. Time & Date
Minimum magnitude displayed is 2.5.

Coastal Water Temperatures

Place Temperature

Stations

Nearby Weather Stations

Station Location Temp. Windchill Dew Point Humidity Wind Precip. Elev Updated Type